Etusivu
METAR-TAF:

METAR-TAF

Lentoasemat :

Skellefteån lentoasema

Skellefteå, Ruotsi

Leveyspiiri: 64-38N, Pituuspiiri: 021-05E, korkeus merenpinnasta: 49 m

Tämänhetkinen sää

Tämä raportti tehtiin 12 minuuttia sitten, kello 09.50 UTC
Tuuli 7 kn koillisesta
Lämpötila 0°C
Kosteus 100%
Ilmanpaine 1015 hPa
Näkyvyys: 1900 m
heikkoa lumisadetta

METAR: ESNS 170950Z AUTO 05007KT 1900 -SN OVC003/// 00/M00 Q1015

Aika: 11:02 (10:02 UTC)

Sääennuste

Tämä raportti tehtiin 32 minuuttia sitten, kello 09.30 UTC
Ennuste voimassa 17. päivästä klo 10 UTC - 17. päivään klo 18 UTC
Tuuli 8 kn koillisesta
Näkyvyys: 1400 m
Pilvistä 300 ft:n korkeudessa
heikkoa lumisadetta
Ajoittain
17. päivästä klo 10 UTC - 17. päivään klo 18 UTC
Näkyvyys: 4000 m
Hajanaisia pilviä 300 ft:n korkeudessa
Hajonneita pilviä 500 ft:n korkeudessa

TAF: ESNS 170930Z 1710/1718 05008KT 1400 -SN OVC003 TEMPO 1710/1718 4000 SCT003 BKN005

Säähavainnot ja -ennusteet yli 4000 lentoasemalta (METAR- ja TAF-raportit).

Käytössä olevat sääasemat on merkitty karttaan keltaisilla ja punaisilla pisteillä.

Aseta hiiri pisteen päälle nähdäksesi sääaseman nimen.

Klikkaa sitten nähdäksesi säähavainnot ja -ennusteet.

Kartan vaihtaminen: klikkaa mustalla rastilla varustettuja vihreitä pisteitä, niin voit zoomata sisään; viivalla varustettua vihreää pistettä, niin voit zoomata ulos tai vihreitä nuolia, niin pääset viereisille kartoille.


METAR-TAF: